createdAt,value
2022-08-04T00:00:50.083Z,1.40
2022-08-04T00:01:51.079Z,1.30
2022-08-04T00:02:50.067Z,1.50
2022-08-04T00:03:50.042Z,1.20
2022-08-04T00:04:50.998Z,1.80
2022-08-04T00:05:50.035Z,1.30
2022-08-04T00:06:49.999Z,1.50
2022-08-04T00:07:49.989Z,1.10
2022-08-04T00:08:49.990Z,1.20
2022-08-04T00:09:49.974Z,1.50
2022-08-04T00:10:49.982Z,1.20
2022-08-04T00:11:50.504Z,1.60
2022-08-04T00:12:49.949Z,1.40
2022-08-04T00:13:59.759Z,1.20
2022-08-04T00:14:50.916Z,1.30
2022-08-04T00:15:49.896Z,1.50
2022-08-04T00:16:49.917Z,1.40
2022-08-04T00:17:49.877Z,1.20
2022-08-04T00:18:49.868Z,1.10
2022-08-04T00:19:49.861Z,1.30
2022-08-04T00:20:49.850Z,1.30
2022-08-04T00:21:49.853Z,1.30
2022-08-04T00:22:49.830Z,1.30
2022-08-04T00:24:11.405Z,1.10
2022-08-04T00:24:50.797Z,1.20
2022-08-04T00:25:49.795Z,1.40
2022-08-04T00:26:49.801Z,1.20
2022-08-04T00:27:49.773Z,1.60
2022-08-04T00:28:49.755Z,1.20
2022-08-04T00:29:53.038Z,1.50
2022-08-04T00:30:49.737Z,1.30
2022-08-04T00:31:56.112Z,1.20
2022-08-04T00:32:51.040Z,1.60
2022-08-04T00:33:49.730Z,1.00
2022-08-04T00:34:50.513Z,1.50
2022-08-04T00:35:49.684Z,1.40
2022-08-04T00:36:49.677Z,1.30
2022-08-04T00:37:49.657Z,1.10
2022-08-04T00:38:50.567Z,1.40
2022-08-04T00:39:49.637Z,1.30
2022-08-04T00:40:49.631Z,1.20
2022-08-04T00:41:56.446Z,1.10
2022-08-04T00:42:59.224Z,1.10
2022-08-04T00:43:50.586Z,1.30
2022-08-04T00:44:49.610Z,1.40
2022-08-04T00:46:15.786Z,1.30
2022-08-04T00:46:50.565Z,0.90
2022-08-04T00:47:49.566Z,1.10
2022-08-04T00:48:50.552Z,1.30
2022-08-04T00:49:49.530Z,1.00
2022-08-04T00:50:50.512Z,1.30
2022-08-04T00:52:31.854Z,1.50
2022-08-04T00:52:50.495Z,1.20
2022-08-04T00:53:51.523Z,1.20
2022-08-04T00:54:49.537Z,1.30
2022-08-04T00:55:49.468Z,1.40
2022-08-04T00:56:49.560Z,1.40
2022-08-04T00:57:49.444Z,1.10
2022-08-04T00:58:49.444Z,1.20
2022-08-04T00:59:49.440Z,1.40
2022-08-04T01:00:49.405Z,1.30
2022-08-04T01:01:49.455Z,1.20
2022-08-04T01:02:49.407Z,1.20
2022-08-04T01:03:51.464Z,1.60
2022-08-04T01:04:49.370Z,1.50
2022-08-04T01:05:49.350Z,1.40
2022-08-04T01:06:56.055Z,1.40
2022-08-04T01:07:50.343Z,1.20
2022-08-04T01:08:49.344Z,1.60
2022-08-04T01:09:49.309Z,1.50
2022-08-04T01:10:49.298Z,1.50
2022-08-04T01:11:56.588Z,1.40
2022-08-04T01:12:50.283Z,1.30
2022-08-04T01:13:49.279Z,1.30
2022-08-04T01:14:49.289Z,1.20
2022-08-04T01:15:59.263Z,1.20
2022-08-04T01:16:50.249Z,0.90
2022-08-04T01:17:49.235Z,1.60
2022-08-04T01:18:49.229Z,1.30
2022-08-04T01:19:49.240Z,1.20
2022-08-04T01:20:49.218Z,1.10
2022-08-04T01:21:49.190Z,1.40
2022-08-04T01:22:49.166Z,1.40
2022-08-04T01:23:49.174Z,1.30
2022-08-04T01:24:49.157Z,1.50
2022-08-04T01:25:49.144Z,1.50
2022-08-04T01:26:57.808Z,1.30
2022-08-04T01:27:50.120Z,1.30
2022-08-04T01:28:49.634Z,1.60
2022-08-04T01:29:49.111Z,1.30
2022-08-04T01:30:49.108Z,1.30
2022-08-04T01:31:49.083Z,1.50
2022-08-04T01:32:49.080Z,1.70
2022-08-04T01:33:58.551Z,1.40
2022-08-04T01:34:50.064Z,1.50
2022-08-04T01:35:49.054Z,1.50
2022-08-04T01:36:50.396Z,1.20
2022-08-04T01:37:49.002Z,1.50
2022-08-04T01:38:49.009Z,1.30
2022-08-04T01:39:49.006Z,1.50
2022-08-04T01:40:49.063Z,1.20
2022-08-04T01:41:58.369Z,1.50
2022-08-04T01:42:52.519Z,1.50
2022-08-04T01:43:48.953Z,1.50
2022-08-04T01:44:48.954Z,1.80
2022-08-04T01:45:48.926Z,1.20
2022-08-04T01:46:48.932Z,1.20
2022-08-04T01:47:48.898Z,1.30
2022-08-04T01:48:48.894Z,1.50
2022-08-04T01:49:48.883Z,1.20
2022-08-04T01:50:52.982Z,1.20
2022-08-04T01:51:48.885Z,1.50
2022-08-04T01:52:51.321Z,1.20
2022-08-04T01:53:49.533Z,1.40
2022-08-04T01:54:48.825Z,1.50
2022-08-04T01:55:54.116Z,1.30
2022-08-04T01:56:49.872Z,1.60
2022-08-04T01:57:48.993Z,1.40
2022-08-04T01:58:48.779Z,1.70
2022-08-04T01:59:48.774Z,1.10
2022-08-04T02:00:51.166Z,1.50
2022-08-04T02:01:49.970Z,1.70
2022-08-04T02:02:48.844Z,1.70
2022-08-04T02:04:18.536Z,1.50
2022-08-04T02:04:50.527Z,1.90
2022-08-04T02:06:03.357Z,1.50
2022-08-04T02:06:49.686Z,1.20
2022-08-04T02:07:48.696Z,1.50
2022-08-04T02:08:48.670Z,1.40
2022-08-04T02:09:54.730Z,1.50
2022-08-04T02:10:49.650Z,1.40
2022-08-04T02:11:48.643Z,1.70
2022-08-04T02:12:48.630Z,1.40
2022-08-04T02:13:48.611Z,1.20
2022-08-04T02:14:48.610Z,1.30
2022-08-04T02:15:48.603Z,1.50
2022-08-04T02:16:52.494Z,1.60
2022-08-04T02:17:49.542Z,1.20
2022-08-04T02:18:50.611Z,1.40
2022-08-04T02:19:48.542Z,1.50
2022-08-04T02:20:49.534Z,1.50
2022-08-04T02:21:48.553Z,1.40
2022-08-04T02:22:48.531Z,1.70
2022-08-04T02:23:51.030Z,1.80
2022-08-04T02:24:51.024Z,1.60
2022-08-04T02:25:48.498Z,1.40
2022-08-04T02:26:48.470Z,2.00
2022-08-04T02:28:00.509Z,1.40
2022-08-04T02:28:49.456Z,2.00
2022-08-04T02:29:48.434Z,1.50
2022-08-04T02:30:48.441Z,1.50
2022-08-04T02:31:48.551Z,1.50
2022-08-04T02:32:48.414Z,1.60
2022-08-04T02:33:49.047Z,1.80
2022-08-04T02:34:48.376Z,1.50
2022-08-04T02:35:49.042Z,2.10
2022-08-04T02:36:48.393Z,1.50
2022-08-04T02:37:48.351Z,1.50
2022-08-04T02:38:48.345Z,1.50
2022-08-04T02:39:49.570Z,1.70
2022-08-04T02:40:48.323Z,1.40
2022-08-04T02:41:49.034Z,1.50
2022-08-04T02:42:49.384Z,1.40
2022-08-04T02:43:51.836Z,1.50
2022-08-04T02:44:48.277Z,1.50
2022-08-04T02:45:48.257Z,1.60
2022-08-04T02:46:48.301Z,1.70
2022-08-04T02:48:25.217Z,1.70
2022-08-04T02:48:49.233Z,1.30
2022-08-04T02:49:49.039Z,1.40
2022-08-04T02:50:52.187Z,1.70
2022-08-04T02:51:49.050Z,1.60
2022-08-04T02:52:48.209Z,1.50
2022-08-04T02:53:48.172Z,1.50
2022-08-04T02:54:48.169Z,1.50
2022-08-04T02:55:52.304Z,1.40
2022-08-04T02:56:50.328Z,1.60
2022-08-04T02:57:48.128Z,1.60
2022-08-04T02:58:49.066Z,1.60
2022-08-04T02:59:48.118Z,1.40
2022-08-04T03:00:48.175Z,1.20
2022-08-04T03:01:57.374Z,1.40
2022-08-04T03:02:49.073Z,1.50
2022-08-04T03:03:48.068Z,1.60
2022-08-04T03:04:48.098Z,1.80
2022-08-04T03:05:54.142Z,1.40
2022-08-04T03:06:49.029Z,1.50
2022-08-04T03:07:48.019Z,1.60
2022-08-04T03:08:48.009Z,1.70
2022-08-04T03:09:48.021Z,1.80
2022-08-04T03:10:47.988Z,1.60
2022-08-04T03:11:48.881Z,1.60
2022-08-04T03:12:47.966Z,1.60
2022-08-04T03:13:48.105Z,1.50
2022-08-04T03:14:47.949Z,1.70
2022-08-04T03:15:47.934Z,1.60
2022-08-04T03:16:48.546Z,1.30
2022-08-04T03:17:52.982Z,1.80
2022-08-04T03:18:49.069Z,1.50
2022-08-04T03:19:47.879Z,1.50
2022-08-04T03:20:47.886Z,1.50
2022-08-04T03:21:47.860Z,1.70
2022-08-04T03:23:11.531Z,1.60
2022-08-04T03:23:48.837Z,1.70
2022-08-04T03:24:47.826Z,1.80
2022-08-04T03:25:56.828Z,1.70
2022-08-04T03:26:48.801Z,1.90
2022-08-04T03:27:47.804Z,1.70
2022-08-04T03:28:47.810Z,1.60
2022-08-04T03:29:49.551Z,1.50
2022-08-04T03:30:47.766Z,1.50
2022-08-04T03:31:47.756Z,1.40
2022-08-04T03:32:47.749Z,1.70
2022-08-04T03:33:48.787Z,1.60
2022-08-04T03:34:47.716Z,1.60
2022-08-04T03:35:47.718Z,1.50
2022-08-04T03:36:48.570Z,1.60
2022-08-04T03:37:47.710Z,1.50
2022-08-04T03:38:55.730Z,1.70
2022-08-04T03:39:49.545Z,1.50
2022-08-04T03:40:50.558Z,1.40
2022-08-04T03:41:51.723Z,1.70
2022-08-04T03:42:48.644Z,1.60
2022-08-04T03:43:58.326Z,1.50
2022-08-04T03:44:48.597Z,1.90
2022-08-04T03:45:48.554Z,1.50
2022-08-04T03:46:47.600Z,2.00
2022-08-04T03:47:48.555Z,1.80
2022-08-04T03:48:48.543Z,2.00
2022-08-04T03:49:47.556Z,1.60
2022-08-04T03:50:48.547Z,1.60
2022-08-04T03:51:49.617Z,1.80
2022-08-04T03:52:47.526Z,1.90
2022-08-04T03:53:47.553Z,2.00
2022-08-04T03:54:47.509Z,1.60
2022-08-04T03:55:47.548Z,1.80
2022-08-04T03:56:48.577Z,2.00
2022-08-04T03:57:47.458Z,1.90
2022-08-04T03:58:47.450Z,1.90
2022-08-04T03:59:49.078Z,1.90
2022-08-04T04:00:48.060Z,2.10
2022-08-04T04:02:02.621Z,2.20
2022-08-04T04:02:49.115Z,1.90
2022-08-04T04:03:47.398Z,2.00
2022-08-04T04:04:47.387Z,1.90
2022-08-04T04:06:00.057Z,2.20
2022-08-04T04:06:53.766Z,2.00
2022-08-04T04:07:49.767Z,1.80
2022-08-04T04:08:49.812Z,1.90
2022-08-04T04:09:52.318Z,1.80
2022-08-04T04:10:48.313Z,1.60
2022-08-04T04:11:56.711Z,2.00
2022-08-04T04:12:48.580Z,2.10
2022-08-04T04:13:47.284Z,1.80
2022-08-04T04:14:47.275Z,2.00
2022-08-04T04:15:50.393Z,2.20
2022-08-04T04:16:50.057Z,2.00
2022-08-04T04:17:47.574Z,1.80
2022-08-04T04:18:47.252Z,1.80
2022-08-04T04:19:47.216Z,2.10
2022-08-04T04:20:47.207Z,1.80
2022-08-04T04:21:50.574Z,1.70
2022-08-04T04:22:48.247Z,1.70
2022-08-04T04:23:47.169Z,1.70
2022-08-04T04:24:47.166Z,1.90
2022-08-04T04:25:47.153Z,1.70
2022-08-04T04:26:49.165Z,2.40
2022-08-04T04:27:48.052Z,1.90
2022-08-04T04:28:47.243Z,2.00
2022-08-04T04:29:47.118Z,1.80
2022-08-04T04:30:47.107Z,1.90
2022-08-04T04:31:50.063Z,1.70
2022-08-04T04:32:48.115Z,2.00
2022-08-04T04:33:47.072Z,1.90
2022-08-04T04:34:47.054Z,2.00
2022-08-04T04:35:47.063Z,1.90
2022-08-04T04:36:47.035Z,2.20
2022-08-04T04:37:48.672Z,1.60
2022-08-04T04:38:47.017Z,2.10
2022-08-04T04:39:46.996Z,1.60
2022-08-04T04:40:49.553Z,2.00
2022-08-04T04:41:46.992Z,1.90
2022-08-04T04:42:46.969Z,1.60
2022-08-04T04:43:51.543Z,2.00
2022-08-04T04:44:47.973Z,2.10
2022-08-04T04:45:46.933Z,1.90
2022-08-04T04:46:46.919Z,1.80
2022-08-04T04:48:08.301Z,2.10
2022-08-04T04:48:47.896Z,2.20
2022-08-04T04:49:46.904Z,1.80
2022-08-04T04:50:46.891Z,1.80
2022-08-04T04:51:46.863Z,2.00
2022-08-04T04:52:46.858Z,2.00
2022-08-04T04:53:46.847Z,1.90
2022-08-04T04:54:46.841Z,2.10
2022-08-04T04:55:48.409Z,2.30
2022-08-04T04:56:46.810Z,2.40
2022-08-04T04:57:54.317Z,1.70
2022-08-04T04:58:47.785Z,2.30
2022-08-04T04:59:47.824Z,2.00
2022-08-04T05:00:46.784Z,2.10
2022-08-04T05:01:46.881Z,2.20
2022-08-04T05:02:46.748Z,1.90
2022-08-04T05:03:46.739Z,2.00
2022-08-04T05:04:46.719Z,1.90
2022-08-04T05:05:46.720Z,2.10
2022-08-04T05:06:46.717Z,1.90
2022-08-04T05:07:48.733Z,2.10
2022-08-04T05:08:49.005Z,2.00
2022-08-04T05:09:47.708Z,2.00
2022-08-04T05:10:46.654Z,2.20
2022-08-04T05:11:46.645Z,1.90
2022-08-04T05:14:31.381Z,2.20
2022-08-04T05:14:35.874Z,2.90
2022-08-04T05:14:47.627Z,2.10
2022-08-04T05:15:46.600Z,2.20
2022-08-04T05:16:46.607Z,2.20
2022-08-04T05:17:46.571Z,2.20
2022-08-04T05:18:46.570Z,1.70
2022-08-04T05:19:46.574Z,2.00
2022-08-04T05:20:46.557Z,2.20
2022-08-04T05:21:46.564Z,2.10
2022-08-04T05:22:46.531Z,2.00
2022-08-04T05:23:46.509Z,1.80
2022-08-04T05:24:48.563Z,1.90
2022-08-04T05:25:58.482Z,2.10
2022-08-04T05:26:47.496Z,2.40
2022-08-04T05:27:46.499Z,2.60
2022-08-04T05:28:46.451Z,2.00
2022-08-04T05:29:46.447Z,2.00
2022-08-04T05:30:46.453Z,1.90
2022-08-04T05:31:46.431Z,1.80
2022-08-04T05:32:47.062Z,2.30
2022-08-04T05:33:46.407Z,1.90
2022-08-04T05:34:46.390Z,2.00
2022-08-04T05:36:18.009Z,2.00
2022-08-04T05:36:47.375Z,2.00
2022-08-04T05:37:47.069Z,1.90
2022-08-04T05:38:47.363Z,1.90
2022-08-04T05:39:47.506Z,1.90
2022-08-04T05:40:46.323Z,1.90
2022-08-04T05:41:48.188Z,2.00
2022-08-04T05:42:47.311Z,1.90
2022-08-04T05:43:46.314Z,2.10
2022-08-04T05:44:50.767Z,1.80
2022-08-04T05:45:46.270Z,1.80
2022-08-04T05:46:54.219Z,2.10
2022-08-04T05:47:47.245Z,2.00
2022-08-04T05:48:46.255Z,1.90
2022-08-04T05:50:01.406Z,2.00
2022-08-04T05:50:47.213Z,2.00
2022-08-04T05:51:48.082Z,1.80
2022-08-04T05:52:47.069Z,1.90
2022-08-04T05:53:47.086Z,1.70
2022-08-04T05:54:46.600Z,1.60
2022-08-04T05:55:48.788Z,1.60
2022-08-04T05:56:47.148Z,1.60
2022-08-04T05:57:47.092Z,1.70
2022-08-04T05:58:46.129Z,1.60
2022-08-04T05:59:48.087Z,1.60
2022-08-04T06:00:52.345Z,1.60
2022-08-04T06:01:55.967Z,1.50
2022-08-04T06:02:47.114Z,1.50
2022-08-04T06:03:46.574Z,1.30
2022-08-04T06:04:46.085Z,1.70
2022-08-04T06:05:46.572Z,1.70
2022-08-04T06:06:46.770Z,1.50
2022-08-04T06:08:07.718Z,1.40
2022-08-04T06:08:47.023Z,2.00
2022-08-04T06:09:46.128Z,1.50
2022-08-04T06:10:46.585Z,1.40
2022-08-04T06:12:00.709Z,1.50
2022-08-04T06:12:46.980Z,1.30
2022-08-04T06:13:49.979Z,1.70
2022-08-04T06:14:46.579Z,1.60
2022-08-04T06:15:46.201Z,1.40
2022-08-04T06:16:51.535Z,1.40
2022-08-04T06:18:33.950Z,1.80
2022-08-04T06:20:02.310Z,1.40
2022-08-04T06:20:03.738Z,1.30
2022-08-04T06:20:50.153Z,1.70
2022-08-04T06:21:46.579Z,1.60
2022-08-04T06:22:46.681Z,1.50
2022-08-04T06:23:53.686Z,1.20
2022-08-04T06:24:46.856Z,1.30
2022-08-04T06:25:47.722Z,1.30
2022-08-04T06:26:46.575Z,1.70
2022-08-04T06:27:45.843Z,1.60
2022-08-04T06:28:46.729Z,1.60
2022-08-04T06:29:51.229Z,1.50
2022-08-04T06:30:46.880Z,1.30
2022-08-04T06:32:30.444Z,1.40
2022-08-04T06:32:46.745Z,1.40
2022-08-04T06:33:54.464Z,1.30
2022-08-04T06:34:46.764Z,1.60
2022-08-04T06:35:46.730Z,1.00
2022-08-04T06:36:48.592Z,1.10
2022-08-04T06:37:46.187Z,1.20
2022-08-04T06:38:46.583Z,1.20
2022-08-04T06:39:46.817Z,1.10
2022-08-04T06:40:46.746Z,1.20
2022-08-04T06:42:02.521Z,1.20
2022-08-04T06:42:46.806Z,1.30
2022-08-04T06:43:46.576Z,1.20
2022-08-04T06:44:46.777Z,1.30
2022-08-04T06:45:45.610Z,1.40
2022-08-04T06:46:51.115Z,1.40
2022-08-04T06:47:45.598Z,1.50
2022-08-04T06:48:48.083Z,1.70
2022-08-04T06:51:26.315Z,1.20
2022-08-04T06:51:27.411Z,1.20
2022-08-04T06:51:49.367Z,1.40
2022-08-04T06:52:48.082Z,1.40
2022-08-04T06:53:46.546Z,1.30
2022-08-04T06:54:48.087Z,1.40
2022-08-04T06:55:45.624Z,1.10
2022-08-04T06:56:48.083Z,1.50
2022-08-04T06:57:45.491Z,1.30
2022-08-04T06:58:48.086Z,1.30
2022-08-04T06:59:48.090Z,1.30
2022-08-04T07:00:52.108Z,1.40
2022-08-04T07:01:47.244Z,1.30
2022-08-04T07:02:48.088Z,0.90
2022-08-04T07:03:45.467Z,1.50
2022-08-04T07:04:47.092Z,1.10
2022-08-04T07:05:48.106Z,1.30
2022-08-04T07:06:48.086Z,1.00
2022-08-04T07:07:57.563Z,1.20
2022-08-04T07:08:47.088Z,1.20
2022-08-04T07:09:45.346Z,1.20
2022-08-04T07:10:48.100Z,0.90
2022-08-04T07:11:47.145Z,1.20
2022-08-04T07:12:45.309Z,1.30
2022-08-04T07:13:48.088Z,1.00
2022-08-04T07:14:48.090Z,0.90
2022-08-04T07:15:45.288Z,1.00
2022-08-04T07:16:46.530Z,0.90
2022-08-04T07:17:47.382Z,1.00
2022-08-04T07:18:48.094Z,0.80
2022-08-04T07:19:48.088Z,1.10
2022-08-04T07:20:45.236Z,0.90
2022-08-04T07:22:18.211Z,0.90
2022-08-04T07:22:47.085Z,0.80
2022-08-04T07:23:47.126Z,1.50
2022-08-04T07:24:45.185Z,1.00
2022-08-04T07:26:00.705Z,0.90
2022-08-04T07:26:47.086Z,1.00
2022-08-04T07:27:49.404Z,0.90
2022-08-04T07:28:47.127Z,0.80
2022-08-04T07:29:46.093Z,0.90
2022-08-04T07:30:48.096Z,0.90
2022-08-04T07:31:48.099Z,0.90
2022-08-04T07:32:47.599Z,0.90
2022-08-04T07:33:45.596Z,0.90
2022-08-04T07:34:49.844Z,0.80
2022-08-04T07:36:05.124Z,0.70
2022-08-04T07:36:53.113Z,0.60
2022-08-04T07:37:45.042Z,1.10
2022-08-04T07:38:51.506Z,0.60
2022-08-04T07:39:48.002Z,1.00
2022-08-04T07:40:45.033Z,0.70
2022-08-04T07:41:48.719Z,0.80
2022-08-04T07:42:45.022Z,0.60
2022-08-04T07:43:44.966Z,0.90
2022-08-04T07:44:44.959Z,0.70
2022-08-04T07:45:44.951Z,0.90
2022-08-04T07:46:45.421Z,0.60
2022-08-04T07:48:06.190Z,0.70
2022-08-04T07:48:44.919Z,0.70
2022-08-04T07:49:55.065Z,0.70
2022-08-04T07:50:52.596Z,0.60
2022-08-04T07:51:44.881Z,0.70
2022-08-04T07:52:46.046Z,0.60
2022-08-04T07:53:55.409Z,0.50
2022-08-04T07:54:45.863Z,0.60
2022-08-04T07:55:46.934Z,0.80
2022-08-04T07:56:45.126Z,0.70
2022-08-04T07:57:45.084Z,0.70
2022-08-04T07:58:47.601Z,0.60
2022-08-04T07:59:48.301Z,0.60
2022-08-04T08:01:00.587Z,0.70
2022-08-04T08:01:47.606Z,0.80
2022-08-04T08:02:45.136Z,0.60
2022-08-04T08:03:44.835Z,0.70
2022-08-04T08:04:47.633Z,0.80
2022-08-04T08:05:54.605Z,0.60
2022-08-04T08:06:48.610Z,0.80
2022-08-04T08:07:50.359Z,0.60
2022-08-04T08:08:48.597Z,1.20
2022-08-04T08:09:45.599Z,1.00
2022-08-04T08:10:44.682Z,0.60
2022-08-04T08:12:38.442Z,0.60
2022-08-04T08:12:51.548Z,0.60
2022-08-04T08:14:08.691Z,0.70
2022-08-04T08:14:47.042Z,0.60
2022-08-04T08:15:44.626Z,0.70
2022-08-04T08:16:44.618Z,0.70
2022-08-04T08:17:58.640Z,0.70
2022-08-04T08:18:50.045Z,0.60
2022-08-04T08:19:44.641Z,0.70
2022-08-04T08:21:08.108Z,0.80
2022-08-04T08:21:58.923Z,0.60
2022-08-04T08:22:48.103Z,0.80
2022-08-04T08:23:47.119Z,0.70
2022-08-04T08:24:44.538Z,0.60
2022-08-04T08:25:45.112Z,0.90
2022-08-04T08:26:44.506Z,0.60
2022-08-04T08:27:56.116Z,0.60
2022-08-04T08:28:52.113Z,0.60
2022-08-04T08:29:44.523Z,0.70
2022-08-04T08:30:52.591Z,0.60
2022-08-04T08:32:07.027Z,0.80
2022-08-04T08:32:45.712Z,0.80
2022-08-04T08:33:47.110Z,0.60
2022-08-04T08:34:44.639Z,0.60
2022-08-04T08:35:51.125Z,0.70
2022-08-04T08:36:52.110Z,0.80
2022-08-04T08:37:44.647Z,0.70
2022-08-04T08:38:44.373Z,0.80
2022-08-04T08:39:45.158Z,0.70
2022-08-04T08:40:45.124Z,0.70
2022-08-04T08:41:59.617Z,0.70
2022-08-04T08:42:45.115Z,0.80
2022-08-04T08:44:03.903Z,0.70
2022-08-04T08:44:48.102Z,0.60
2022-08-04T08:45:44.301Z,0.60
2022-08-04T08:46:51.610Z,0.70
2022-08-04T08:48:04.808Z,0.70
2022-08-04T08:48:52.112Z,0.70
2022-08-04T08:50:02.765Z,0.60
2022-08-04T08:50:52.108Z,0.80
2022-08-04T08:51:51.118Z,0.90
2022-08-04T08:53:00.787Z,0.60
2022-08-04T08:53:45.247Z,0.60
2022-08-04T08:54:44.193Z,0.80
2022-08-04T08:55:44.189Z,0.60
2022-08-04T08:56:44.183Z,0.80
2022-08-04T08:58:00.262Z,0.80
2022-08-04T08:58:48.114Z,1.00
2022-08-04T08:59:49.642Z,0.90
2022-08-04T09:00:45.115Z,0.80
2022-08-04T09:01:44.181Z,0.90
2022-08-04T09:02:44.618Z,0.80
2022-08-04T09:03:44.119Z,0.90
2022-08-04T09:04:44.128Z,1.10
2022-08-04T09:05:44.083Z,1.10
2022-08-04T09:06:44.077Z,1.00
2022-08-04T09:07:44.064Z,0.90
2022-08-04T09:08:44.056Z,0.90
2022-08-04T09:09:44.035Z,0.70
2022-08-04T09:10:44.156Z,0.70
2022-08-04T09:11:44.004Z,1.20
2022-08-04T09:12:45.035Z,1.00
2022-08-04T09:13:44.001Z,1.20
2022-08-04T09:14:44.617Z,1.00
2022-08-04T09:15:44.154Z,0.70
2022-08-04T09:16:43.960Z,0.90
2022-08-04T09:17:44.621Z,0.80
2022-08-04T09:18:43.943Z,1.00
2022-08-04T09:19:44.157Z,1.00
2022-08-04T09:20:44.145Z,0.70
2022-08-04T09:21:43.913Z,0.80
2022-08-04T09:22:44.615Z,0.70
2022-08-04T09:23:44.620Z,1.20
2022-08-04T09:25:04.902Z,1.00
2022-08-04T09:25:43.889Z,0.80
2022-08-04T09:26:50.623Z,0.90
2022-08-04T09:27:45.616Z,1.30
2022-08-04T09:29:04.839Z,1.10
2022-08-04T09:29:43.820Z,1.20
2022-08-04T09:30:43.813Z,1.60
2022-08-04T09:31:51.551Z,1.80
2022-08-04T09:32:44.787Z,1.60
2022-08-04T09:33:46.135Z,1.60
2022-08-04T09:34:43.767Z,1.20
2022-08-04T09:35:44.642Z,0.80
2022-08-04T09:36:43.772Z,0.60
2022-08-04T09:37:46.096Z,0.80
2022-08-04T09:39:04.764Z,0.80
2022-08-04T09:39:44.521Z,0.80
2022-08-04T09:40:53.794Z,0.60
2022-08-04T09:41:49.045Z,0.80
2022-08-04T09:42:44.712Z,0.90
2022-08-04T09:44:42.788Z,0.70
2022-08-04T09:44:52.988Z,0.80
2022-08-04T09:45:44.666Z,0.70
2022-08-04T09:46:59.645Z,0.70
2022-08-04T09:47:43.643Z,0.70
2022-08-04T09:48:50.143Z,0.60
2022-08-04T09:49:43.597Z,0.60
2022-08-04T09:50:48.181Z,0.80
2022-08-04T09:51:57.300Z,0.70
2022-08-04T09:52:44.588Z,0.50
2022-08-04T09:53:43.587Z,0.70
2022-08-04T09:54:44.122Z,0.70
2022-08-04T09:55:53.975Z,0.70
2022-08-04T09:57:05.537Z,0.80
2022-08-04T09:57:43.514Z,0.60
2022-08-04T09:58:44.144Z,0.70
2022-08-04T09:59:43.489Z,0.70
2022-08-04T10:00:43.659Z,1.00
2022-08-04T10:01:44.126Z,0.50
2022-08-04T10:02:43.493Z,0.60
2022-08-04T10:04:05.136Z,0.40
2022-08-04T10:04:45.173Z,0.40
2022-08-04T10:05:43.451Z,0.50
2022-08-04T10:06:43.427Z,0.70
2022-08-04T10:07:43.418Z,0.50
2022-08-04T10:08:44.409Z,0.50
2022-08-04T10:09:43.401Z,0.50
2022-08-04T10:10:43.378Z,0.40
2022-08-04T10:11:55.567Z,0.50
2022-08-04T10:12:51.137Z,0.50
2022-08-04T10:13:43.345Z,0.40
2022-08-04T10:14:44.130Z,1.10
2022-08-04T10:15:45.144Z,0.40
2022-08-04T10:16:43.315Z,0.50
2022-08-04T10:17:52.438Z,0.60
2022-08-04T10:18:45.133Z,0.30
2022-08-04T10:19:43.277Z,0.60
2022-08-04T10:20:46.423Z,0.70
2022-08-04T10:21:59.479Z,0.70
2022-08-04T10:23:09.135Z,0.50
2022-08-04T10:24:05.245Z,0.40
2022-08-04T10:24:50.136Z,0.40
2022-08-04T10:26:06.836Z,0.70
2022-08-04T10:26:44.200Z,0.50
2022-08-04T10:27:44.238Z,0.50
2022-08-04T10:28:43.193Z,0.60
2022-08-04T10:29:43.194Z,0.40
2022-08-04T10:30:43.161Z,0.50
2022-08-04T10:31:43.149Z,0.50
2022-08-04T10:32:43.285Z,0.40
2022-08-04T10:33:43.641Z,0.60
2022-08-04T10:34:43.130Z,0.60
2022-08-04T10:35:49.639Z,0.50
2022-08-04T10:36:43.160Z,0.60
2022-08-04T10:37:58.983Z,0.50
2022-08-04T10:38:44.078Z,0.50
2022-08-04T10:39:57.657Z,0.60
2022-08-04T10:40:43.646Z,0.50
2022-08-04T10:41:43.174Z,0.70
2022-08-04T10:42:43.052Z,0.60
2022-08-04T10:43:43.045Z,0.40
2022-08-04T10:44:43.047Z,0.40
2022-08-04T10:45:43.003Z,0.40
2022-08-04T10:46:43.030Z,0.30
2022-08-04T10:47:45.642Z,0.30
2022-08-04T10:48:45.642Z,0.30
2022-08-04T10:49:42.995Z,0.30
2022-08-04T10:50:52.158Z,0.90
2022-08-04T10:51:57.386Z,0.60
2022-08-04T10:52:43.933Z,0.40
2022-08-04T10:53:43.178Z,0.50
2022-08-04T10:54:45.651Z,0.60
2022-08-04T10:56:07.260Z,0.60
2022-08-04T10:56:43.888Z,0.50
2022-08-04T10:57:45.654Z,0.60
2022-08-04T10:58:47.792Z,0.60
2022-08-04T10:59:43.859Z,0.40
2022-08-04T11:00:43.649Z,0.50
2022-08-04T11:01:50.960Z,0.70
2022-08-04T11:02:43.889Z,0.50
2022-08-04T11:03:43.685Z,0.40
2022-08-04T11:04:42.849Z,0.60
2022-08-04T11:06:04.857Z,0.40
2022-08-04T11:06:43.653Z,0.50
2022-08-04T11:07:42.778Z,0.50
2022-08-04T11:08:43.171Z,0.70
2022-08-04T11:09:43.190Z,0.50
2022-08-04T11:10:42.748Z,1.20
2022-08-04T11:11:57.154Z,0.80
2022-08-04T11:12:43.728Z,0.80
2022-08-04T11:13:46.908Z,1.10
2022-08-04T11:14:43.712Z,0.70
2022-08-04T11:15:42.706Z,0.60
2022-08-04T11:16:43.661Z,0.80
2022-08-04T11:17:42.672Z,0.90
2022-08-04T11:18:42.676Z,0.70
2022-08-04T11:19:48.622Z,0.70
2022-08-04T11:20:43.649Z,0.60
2022-08-04T11:21:45.166Z,0.70
2022-08-04T11:22:43.158Z,0.60
2022-08-04T11:23:42.615Z,0.60
2022-08-04T11:24:42.625Z,0.70
2022-08-04T11:25:42.592Z,0.60
2022-08-04T11:26:43.161Z,0.70
2022-08-04T11:27:42.684Z,0.70
2022-08-04T11:28:45.161Z,0.50
2022-08-04T11:29:42.542Z,0.50
2022-08-04T11:30:43.159Z,0.40
2022-08-04T11:31:42.526Z,0.40
2022-08-04T11:32:43.570Z,0.40
2022-08-04T11:33:42.687Z,0.50
2022-08-04T11:34:43.500Z,0.50
2022-08-04T11:35:43.482Z,0.40
2022-08-04T11:36:42.481Z,0.60
2022-08-04T11:37:42.482Z,0.60
2022-08-04T11:38:46.184Z,0.50
2022-08-04T11:39:43.549Z,0.90
2022-08-04T11:41:02.260Z,0.50
2022-08-04T11:41:43.419Z,0.70
2022-08-04T11:42:42.428Z,0.50
2022-08-04T11:43:56.559Z,0.50
2022-08-04T11:44:43.406Z,0.50
2022-08-04T11:45:42.380Z,0.40
2022-08-04T11:46:42.369Z,0.50
2022-08-04T11:47:43.413Z,0.60
2022-08-04T11:48:42.690Z,0.60
2022-08-04T11:49:57.591Z,0.60
2022-08-04T11:50:43.329Z,0.60
2022-08-04T11:51:49.171Z,0.50
2022-08-04T11:52:42.304Z,0.80
2022-08-04T11:53:43.332Z,0.40
2022-08-04T11:54:42.289Z,0.40
2022-08-04T11:56:07.602Z,0.50
2022-08-04T11:56:43.273Z,0.40
2022-08-04T11:57:42.260Z,1.30
2022-08-04T11:58:42.275Z,0.70
2022-08-04T11:59:43.687Z,0.60
2022-08-04T12:00:45.171Z,0.80
2022-08-04T12:01:42.212Z,0.70
2022-08-04T12:02:45.243Z,0.80
2022-08-04T12:03:42.210Z,0.50
2022-08-04T12:04:44.168Z,0.90
2022-08-04T12:05:42.201Z,1.00
2022-08-04T12:06:42.661Z,0.70
2022-08-04T12:07:49.682Z,0.70
2022-08-04T12:08:42.680Z,0.70
2022-08-04T12:09:42.128Z,0.70
2022-08-04T12:10:42.903Z,0.90
2022-08-04T12:11:42.121Z,0.80
2022-08-04T12:12:42.100Z,0.70
2022-08-04T12:13:42.096Z,0.80
2022-08-04T12:14:42.083Z,0.80
2022-08-04T12:15:48.691Z,0.80
2022-08-04T12:16:42.075Z,0.50
2022-08-04T12:17:53.067Z,0.60
2022-08-04T12:18:45.671Z,0.90
2022-08-04T12:20:03.479Z,0.80
2022-08-04T12:20:44.079Z,0.60
2022-08-04T12:21:43.553Z,0.70
2022-08-04T12:22:42.993Z,0.60
2022-08-04T12:23:41.990Z,0.70
2022-08-04T12:24:42.676Z,0.60
2022-08-04T12:25:44.868Z,0.80
2022-08-04T12:26:41.966Z,0.70
2022-08-04T12:27:42.675Z,0.60
2022-08-04T12:29:12.041Z,0.50
2022-08-04T12:29:43.681Z,0.80
2022-08-04T12:30:59.818Z,0.60
2022-08-04T12:31:42.918Z,0.50
2022-08-04T12:32:48.347Z,0.60
2022-08-04T12:34:05.415Z,0.50
2022-08-04T12:34:42.866Z,0.50
2022-08-04T12:36:11.417Z,0.50
2022-08-04T12:36:43.225Z,0.50
2022-08-04T12:37:41.842Z,0.80
2022-08-04T12:38:41.853Z,0.70
2022-08-04T12:40:27.673Z,0.50
2022-08-04T12:40:42.837Z,0.60
2022-08-04T12:41:41.814Z,0.50
2022-08-04T12:42:56.194Z,0.70
2022-08-04T12:43:42.786Z,0.50
2022-08-04T12:44:41.803Z,0.70
2022-08-04T12:45:41.762Z,0.70
2022-08-04T12:46:41.744Z,0.60
2022-08-04T12:47:42.227Z,0.70
2022-08-04T12:48:56.679Z,1.80
2022-08-04T12:49:53.166Z,0.70
2022-08-04T12:50:42.718Z,0.80
2022-08-04T12:52:08.653Z,0.70
2022-08-04T12:53:05.643Z,0.50
2022-08-04T12:53:51.368Z,0.90
2022-08-04T12:54:42.665Z,0.70
2022-08-04T12:55:41.677Z,0.80
2022-08-04T12:56:41.643Z,0.90
2022-08-04T12:57:41.646Z,1.00
2022-08-04T12:58:44.234Z,1.10
2022-08-04T12:59:41.625Z,1.00
2022-08-04T13:00:42.437Z,0.70
2022-08-04T13:02:11.068Z,0.90
2022-08-04T13:02:43.230Z,0.70
2022-08-04T13:03:41.709Z,0.90
2022-08-04T13:04:41.559Z,1.10
2022-08-04T13:05:41.563Z,0.80
2022-08-04T13:06:41.536Z,1.30
2022-08-04T13:07:44.064Z,1.10
2022-08-04T13:08:42.546Z,0.90
2022-08-04T13:09:41.536Z,1.00
2022-08-04T13:10:43.591Z,1.40
2022-08-04T13:11:41.480Z,0.90
2022-08-04T13:12:41.483Z,0.80
2022-08-04T13:13:41.463Z,1.00
2022-08-04T13:14:42.482Z,1.00
2022-08-04T13:15:47.590Z,0.80
2022-08-04T13:16:46.369Z,1.00
2022-08-04T13:17:41.423Z,0.70
2022-08-04T13:18:41.413Z,1.00